sensor_id;sensor_type;location;lat;lon;timestamp;P1;durP1;ratioP1;P2;durP2;ratioP2
7029;SDS011;3556;53.500;10.176;2023-12-20T00:00:07;9.23;;;1.60;;
7029;SDS011;3556;53.500;10.176;2023-12-20T00:02:33;11.27;;;1.63;;
7029;SDS011;3556;53.500;10.176;2023-12-20T00:04:59;6.50;;;1.60;;
7029;SDS011;3556;53.500;10.176;2023-12-20T00:07:25;18.50;;;2.60;;
7029;SDS011;3556;53.500;10.176;2023-12-20T00:09:51;9.50;;;1.90;;
7029;SDS011;3556;53.500;10.176;2023-12-20T00:12:16;15.27;;;2.80;;
7029;SDS011;3556;53.500;10.176;2023-12-20T00:14:42;11.73;;;1.80;;
7029;SDS011;3556;53.500;10.176;2023-12-20T00:17:07;8.73;;;1.90;;
7029;SDS011;3556;53.500;10.176;2023-12-20T00:19:33;9.37;;;1.40;;
7029;SDS011;3556;53.500;10.176;2023-12-20T00:21:59;10.47;;;2.10;;
7029;SDS011;3556;53.500;10.176;2023-12-20T00:24:24;5.77;;;1.40;;
7029;SDS011;3556;53.500;10.176;2023-12-20T00:26:50;7.17;;;1.70;;
7029;SDS011;3556;53.500;10.176;2023-12-20T00:29:16;10.27;;;1.67;;
7029;SDS011;3556;53.500;10.176;2023-12-20T00:31:41;6.40;;;1.50;;
7029;SDS011;3556;53.500;10.176;2023-12-20T00:34:07;5.83;;;1.60;;
7029;SDS011;3556;53.500;10.176;2023-12-20T00:36:32;10.00;;;1.80;;
7029;SDS011;3556;53.500;10.176;2023-12-20T00:38:58;7.27;;;1.73;;
7029;SDS011;3556;53.500;10.176;2023-12-20T00:41:24;9.70;;;1.50;;
7029;SDS011;3556;53.500;10.176;2023-12-20T00:43:50;10.57;;;1.80;;
7029;SDS011;3556;53.500;10.176;2023-12-20T00:46:15;4.60;;;1.30;;
7029;SDS011;3556;53.500;10.176;2023-12-20T00:48:41;7.90;;;1.70;;
7029;SDS011;3556;53.500;10.176;2023-12-20T00:51:07;6.73;;;2.17;;
7029;SDS011;3556;53.500;10.176;2023-12-20T00:53:33;11.20;;;1.67;;
7029;SDS011;3556;53.500;10.176;2023-12-20T00:55:58;16.60;;;1.63;;
7029;SDS011;3556;53.500;10.176;2023-12-20T00:58:24;9.60;;;1.40;;
7029;SDS011;3556;53.500;10.176;2023-12-20T01:00:50;6.57;;;1.23;;
7029;SDS011;3556;53.500;10.176;2023-12-20T01:03:16;14.70;;;1.33;;
7029;SDS011;3556;53.500;10.176;2023-12-20T01:05:41;15.13;;;1.90;;
7029;SDS011;3556;53.500;10.176;2023-12-20T01:08:07;11.53;;;1.60;;
7029;SDS011;3556;53.500;10.176;2023-12-20T01:10:32;13.93;;;1.70;;
7029;SDS011;3556;53.500;10.176;2023-12-20T01:12:58;10.40;;;1.53;;
7029;SDS011;3556;53.500;10.176;2023-12-20T01:15:23;17.03;;;1.60;;
7029;SDS011;3556;53.500;10.176;2023-12-20T01:17:49;18.67;;;1.80;;
7029;SDS011;3556;53.500;10.176;2023-12-20T01:20:15;16.40;;;2.00;;
7029;SDS011;3556;53.500;10.176;2023-12-20T01:22:40;24.47;;;1.80;;
7029;SDS011;3556;53.500;10.176;2023-12-20T01:25:07;17.67;;;1.70;;
7029;SDS011;3556;53.500;10.176;2023-12-20T01:27:33;7.70;;;1.63;;
7029;SDS011;3556;53.500;10.176;2023-12-20T01:29:59;8.67;;;1.57;;
7029;SDS011;3556;53.500;10.176;2023-12-20T01:32:24;6.43;;;1.40;;
7029;SDS011;3556;53.500;10.176;2023-12-20T01:34:50;9.03;;;1.63;;
7029;SDS011;3556;53.500;10.176;2023-12-20T01:37:16;15.20;;;2.00;;
7029;SDS011;3556;53.500;10.176;2023-12-20T01:39:41;12.40;;;1.97;;
7029;SDS011;3556;53.500;10.176;2023-12-20T01:42:07;6.40;;;1.20;;
7029;SDS011;3556;53.500;10.176;2023-12-20T01:44:33;10.20;;;1.60;;
7029;SDS011;3556;53.500;10.176;2023-12-20T01:46:58;11.57;;;1.93;;
7029;SDS011;3556;53.500;10.176;2023-12-20T01:49:25;16.67;;;2.37;;
7029;SDS011;3556;53.500;10.176;2023-12-20T01:51:51;11.97;;;1.40;;
7029;SDS011;3556;53.500;10.176;2023-12-20T01:54:17;13.37;;;2.10;;
7029;SDS011;3556;53.500;10.176;2023-12-20T01:56:44;21.67;;;2.60;;
7029;SDS011;3556;53.500;10.176;2023-12-20T01:59:10;5.13;;;1.23;;
7029;SDS011;3556;53.500;10.176;2023-12-20T02:01:36;21.17;;;1.67;;
7029;SDS011;3556;53.500;10.176;2023-12-20T02:04:01;13.67;;;1.97;;
7029;SDS011;3556;53.500;10.176;2023-12-20T02:06:29;9.00;;;1.37;;
7029;SDS011;3556;53.500;10.176;2023-12-20T02:08:57;21.23;;;1.87;;
7029;SDS011;3556;53.500;10.176;2023-12-20T02:11:23;6.07;;;1.63;;
7029;SDS011;3556;53.500;10.176;2023-12-20T02:13:50;7.37;;;1.60;;
7029;SDS011;3556;53.500;10.176;2023-12-20T02:16:16;9.80;;;1.80;;
7029;SDS011;3556;53.500;10.176;2023-12-20T02:18:42;10.10;;;1.50;;
7029;SDS011;3556;53.500;10.176;2023-12-20T02:21:09;17.30;;;1.60;;
7029;SDS011;3556;53.500;10.176;2023-12-20T02:23:35;5.73;;;1.50;;
7029;SDS011;3556;53.500;10.176;2023-12-20T02:26:01;7.90;;;1.37;;
7029;SDS011;3556;53.500;10.176;2023-12-20T02:28:27;8.73;;;1.60;;
7029;SDS011;3556;53.500;10.176;2023-12-20T02:30:53;15.43;;;2.03;;
7029;SDS011;3556;53.500;10.176;2023-12-20T02:33:19;8.73;;;1.70;;
7029;SDS011;3556;53.500;10.176;2023-12-20T02:35:44;7.77;;;1.93;;
7029;SDS011;3556;53.500;10.176;2023-12-20T02:38:10;9.10;;;2.50;;
7029;SDS011;3556;53.500;10.176;2023-12-20T02:40:36;9.63;;;1.93;;
7029;SDS011;3556;53.500;10.176;2023-12-20T02:43:01;15.37;;;2.23;;
7029;SDS011;3556;53.500;10.176;2023-12-20T02:45:27;14.40;;;2.37;;
7029;SDS011;3556;53.500;10.176;2023-12-20T02:47:53;10.87;;;1.60;;
7029;SDS011;3556;53.500;10.176;2023-12-20T02:50:18;14.37;;;2.17;;
7029;SDS011;3556;53.500;10.176;2023-12-20T02:52:46;14.33;;;2.10;;
7029;SDS011;3556;53.500;10.176;2023-12-20T02:55:12;9.00;;;1.80;;
7029;SDS011;3556;53.500;10.176;2023-12-20T02:57:38;13.93;;;2.17;;
7029;SDS011;3556;53.500;10.176;2023-12-20T03:00:07;21.93;;;2.70;;
7029;SDS011;3556;53.500;10.176;2023-12-20T03:02:34;14.90;;;2.00;;
7029;SDS011;3556;53.500;10.176;2023-12-20T03:05:00;12.53;;;1.90;;
7029;SDS011;3556;53.500;10.176;2023-12-20T03:07:25;8.33;;;1.53;;
7029;SDS011;3556;53.500;10.176;2023-12-20T03:09:51;18.43;;;2.70;;
7029;SDS011;3556;53.500;10.176;2023-12-20T03:12:17;8.40;;;1.77;;
7029;SDS011;3556;53.500;10.176;2023-12-20T03:14:43;8.73;;;1.77;;
7029;SDS011;3556;53.500;10.176;2023-12-20T03:17:09;17.73;;;3.10;;
7029;SDS011;3556;53.500;10.176;2023-12-20T03:19:35;18.10;;;3.07;;
7029;SDS011;3556;53.500;10.176;2023-12-20T03:22:00;6.67;;;2.00;;
7029;SDS011;3556;53.500;10.176;2023-12-20T03:24:26;14.50;;;2.07;;
7029;SDS011;3556;53.500;10.176;2023-12-20T03:26:52;13.87;;;1.97;;
7029;SDS011;3556;53.500;10.176;2023-12-20T03:29:17;8.20;;;1.80;;
7029;SDS011;3556;53.500;10.176;2023-12-20T03:31:43;13.73;;;2.23;;
7029;SDS011;3556;53.500;10.176;2023-12-20T03:34:08;17.57;;;2.40;;
7029;SDS011;3556;53.500;10.176;2023-12-20T03:36:34;15.07;;;2.23;;
7029;SDS011;3556;53.500;10.176;2023-12-20T03:38:59;10.53;;;2.10;;
7029;SDS011;3556;53.500;10.176;2023-12-20T03:41:25;21.63;;;2.30;;
7029;SDS011;3556;53.500;10.176;2023-12-20T03:43:51;13.13;;;2.00;;
7029;SDS011;3556;53.500;10.176;2023-12-20T03:46:16;18.60;;;1.93;;
7029;SDS011;3556;53.500;10.176;2023-12-20T03:48:42;10.70;;;1.80;;
7029;SDS011;3556;53.500;10.176;2023-12-20T03:51:08;10.73;;;1.70;;
7029;SDS011;3556;53.500;10.176;2023-12-20T03:53:33;15.17;;;1.93;;
7029;SDS011;3556;53.500;10.176;2023-12-20T03:55:59;12.63;;;1.87;;
7029;SDS011;3556;53.500;10.176;2023-12-20T03:58:24;10.50;;;2.47;;
7029;SDS011;3556;53.500;10.176;2023-12-20T04:00:50;16.53;;;2.30;;
7029;SDS011;3556;53.500;10.176;2023-12-20T04:03:16;7.67;;;1.40;;
7029;SDS011;3556;53.500;10.176;2023-12-20T04:05:41;5.97;;;1.40;;
7029;SDS011;3556;53.500;10.176;2023-12-20T04:08:07;10.33;;;1.80;;
7029;SDS011;3556;53.500;10.176;2023-12-20T04:10:35;10.87;;;2.23;;
7029;SDS011;3556;53.500;10.176;2023-12-20T04:13:00;13.57;;;1.87;;
7029;SDS011;3556;53.500;10.176;2023-12-20T04:15:26;8.80;;;1.93;;
7029;SDS011;3556;53.500;10.176;2023-12-20T04:17:51;9.93;;;2.63;;
7029;SDS011;3556;53.500;10.176;2023-12-20T04:20:17;10.70;;;2.13;;
7029;SDS011;3556;53.500;10.176;2023-12-20T04:22:43;13.73;;;2.30;;
7029;SDS011;3556;53.500;10.176;2023-12-20T04:25:08;10.57;;;2.10;;
7029;SDS011;3556;53.500;10.176;2023-12-20T04:27:34;13.27;;;2.63;;
7029;SDS011;3556;53.500;10.176;2023-12-20T04:30:00;14.73;;;2.87;;
7029;SDS011;3556;53.500;10.176;2023-12-20T04:32:26;9.00;;;2.70;;
7029;SDS011;3556;53.500;10.176;2023-12-20T04:34:51;12.63;;;2.93;;
7029;SDS011;3556;53.500;10.176;2023-12-20T04:37:17;12.23;;;3.33;;
7029;SDS011;3556;53.500;10.176;2023-12-20T04:39:42;17.80;;;3.67;;
7029;SDS011;3556;53.500;10.176;2023-12-20T04:42:08;15.70;;;3.50;;
7029;SDS011;3556;53.500;10.176;2023-12-20T04:44:34;12.27;;;3.23;;
7029;SDS011;3556;53.500;10.176;2023-12-20T04:46:59;19.40;;;4.33;;
7029;SDS011;3556;53.500;10.176;2023-12-20T04:49:25;8.07;;;3.60;;
7029;SDS011;3556;53.500;10.176;2023-12-20T04:51:50;14.97;;;3.80;;
7029;SDS011;3556;53.500;10.176;2023-12-20T04:54:16;8.60;;;3.47;;
7029;SDS011;3556;53.500;10.176;2023-12-20T04:56:42;11.53;;;3.80;;
7029;SDS011;3556;53.500;10.176;2023-12-20T04:59:07;12.97;;;3.67;;
7029;SDS011;3556;53.500;10.176;2023-12-20T05:01:33;15.90;;;3.93;;
7029;SDS011;3556;53.500;10.176;2023-12-20T05:03:59;9.50;;;3.20;;
7029;SDS011;3556;53.500;10.176;2023-12-20T05:06:24;7.70;;;3.20;;
7029;SDS011;3556;53.500;10.176;2023-12-20T05:08:50;13.63;;;3.60;;
7029;SDS011;3556;53.500;10.176;2023-12-20T05:11:15;19.83;;;3.30;;
7029;SDS011;3556;53.500;10.176;2023-12-20T05:13:41;16.33;;;2.90;;
7029;SDS011;3556;53.500;10.176;2023-12-20T05:16:07;16.10;;;3.67;;
7029;SDS011;3556;53.500;10.176;2023-12-20T05:18:34;23.00;;;4.37;;
7029;SDS011;3556;53.500;10.176;2023-12-20T05:20:59;12.23;;;3.87;;
7029;SDS011;3556;53.500;10.176;2023-12-20T05:23:25;23.90;;;4.27;;
7029;SDS011;3556;53.500;10.176;2023-12-20T05:25:51;10.77;;;3.23;;
7029;SDS011;3556;53.500;10.176;2023-12-20T05:28:16;19.50;;;4.27;;
7029;SDS011;3556;53.500;10.176;2023-12-20T05:30:42;12.13;;;4.07;;
7029;SDS011;3556;53.500;10.176;2023-12-20T05:33:08;22.47;;;5.00;;
7029;SDS011;3556;53.500;10.176;2023-12-20T05:35:34;9.83;;;4.93;;
7029;SDS011;3556;53.500;10.176;2023-12-20T05:38:00;23.43;;;4.40;;
7029;SDS011;3556;53.500;10.176;2023-12-20T05:40:25;11.90;;;4.50;;
7029;SDS011;3556;53.500;10.176;2023-12-20T05:42:51;13.03;;;3.93;;
7029;SDS011;3556;53.500;10.176;2023-12-20T05:45:16;12.30;;;3.67;;
7029;SDS011;3556;53.500;10.176;2023-12-20T05:47:42;12.60;;;3.83;;
7029;SDS011;3556;53.500;10.176;2023-12-20T05:50:08;14.43;;;4.23;;
7029;SDS011;3556;53.500;10.176;2023-12-20T05:52:34;16.70;;;4.03;;
7029;SDS011;3556;53.500;10.176;2023-12-20T05:54:59;14.40;;;4.17;;
7029;SDS011;3556;53.500;10.176;2023-12-20T05:57:26;16.20;;;4.30;;
7029;SDS011;3556;53.500;10.176;2023-12-20T05:59:52;16.70;;;4.37;;
7029;SDS011;3556;53.500;10.176;2023-12-20T06:02:18;18.03;;;3.90;;
7029;SDS011;3556;53.500;10.176;2023-12-20T06:04:43;30.83;;;4.77;;
7029;SDS011;3556;53.500;10.176;2023-12-20T06:07:11;15.27;;;3.80;;
7029;SDS011;3556;53.500;10.176;2023-12-20T06:09:37;21.47;;;3.90;;
7029;SDS011;3556;53.500;10.176;2023-12-20T06:12:03;13.60;;;3.23;;
7029;SDS011;3556;53.500;10.176;2023-12-20T06:14:29;18.67;;;3.10;;
7029;SDS011;3556;53.500;10.176;2023-12-20T06:16:55;20.03;;;3.80;;
7029;SDS011;3556;53.500;10.176;2023-12-20T06:19:22;18.33;;;3.40;;
7029;SDS011;3556;53.500;10.176;2023-12-20T06:21:47;12.47;;;3.60;;
7029;SDS011;3556;53.500;10.176;2023-12-20T06:24:13;24.73;;;4.40;;
7029;SDS011;3556;53.500;10.176;2023-12-20T06:26:39;20.80;;;4.00;;
7029;SDS011;3556;53.500;10.176;2023-12-20T06:29:04;11.23;;;2.93;;
7029;SDS011;3556;53.500;10.176;2023-12-20T06:31:30;10.30;;;3.23;;
7029;SDS011;3556;53.500;10.176;2023-12-20T06:33:57;17.83;;;2.90;;
7029;SDS011;3556;53.500;10.176;2023-12-20T06:36:24;22.83;;;3.40;;
7029;SDS011;3556;53.500;10.176;2023-12-20T06:38:51;12.03;;;2.97;;
7029;SDS011;3556;53.500;10.176;2023-12-20T06:41:16;14.33;;;2.93;;
7029;SDS011;3556;53.500;10.176;2023-12-20T06:43:42;7.87;;;2.27;;
7029;SDS011;3556;53.500;10.176;2023-12-20T06:46:08;15.07;;;3.30;;
7029;SDS011;3556;53.500;10.176;2023-12-20T06:48:34;13.07;;;2.97;;
7029;SDS011;3556;53.500;10.176;2023-12-20T06:51:00;19.37;;;3.13;;
7029;SDS011;3556;53.500;10.176;2023-12-20T06:53:27;23.70;;;3.37;;
7029;SDS011;3556;53.500;10.176;2023-12-20T06:55:52;14.07;;;3.27;;
7029;SDS011;3556;53.500;10.176;2023-12-20T06:58:18;11.30;;;2.90;;
7029;SDS011;3556;53.500;10.176;2023-12-20T07:00:44;16.40;;;2.87;;
7029;SDS011;3556;53.500;10.176;2023-12-20T07:03:09;16.43;;;2.27;;
7029;SDS011;3556;53.500;10.176;2023-12-20T07:05:35;12.00;;;3.10;;
7029;SDS011;3556;53.500;10.176;2023-12-20T07:08:01;14.67;;;2.50;;
7029;SDS011;3556;53.500;10.176;2023-12-20T07:10:26;9.67;;;2.23;;
7029;SDS011;3556;53.500;10.176;2023-12-20T07:12:52;7.60;;;2.40;;
7029;SDS011;3556;53.500;10.176;2023-12-20T07:15:20;14.90;;;2.47;;
7029;SDS011;3556;53.500;10.176;2023-12-20T07:17:46;9.33;;;2.30;;
7029;SDS011;3556;53.500;10.176;2023-12-20T07:20:12;12.80;;;2.87;;
7029;SDS011;3556;53.500;10.176;2023-12-20T07:22:37;20.53;;;3.77;;
7029;SDS011;3556;53.500;10.176;2023-12-20T07:25:04;15.30;;;2.90;;
7029;SDS011;3556;53.500;10.176;2023-12-20T07:27:30;10.90;;;2.77;;
7029;SDS011;3556;53.500;10.176;2023-12-20T07:29:55;14.07;;;3.07;;
7029;SDS011;3556;53.500;10.176;2023-12-20T07:32:21;15.00;;;2.97;;
7029;SDS011;3556;53.500;10.176;2023-12-20T07:34:47;11.83;;;2.90;;
7029;SDS011;3556;53.500;10.176;2023-12-20T07:37:13;13.83;;;3.10;;
7029;SDS011;3556;53.500;10.176;2023-12-20T07:39:39;18.77;;;3.23;;
7029;SDS011;3556;53.500;10.176;2023-12-20T07:42:05;19.40;;;3.17;;
7029;SDS011;3556;53.500;10.176;2023-12-20T07:44:31;24.70;;;3.60;;
7029;SDS011;3556;53.500;10.176;2023-12-20T07:46:57;16.40;;;2.70;;
7029;SDS011;3556;53.500;10.176;2023-12-20T07:49:23;10.33;;;3.07;;
7029;SDS011;3556;53.500;10.176;2023-12-20T07:51:49;17.77;;;3.37;;
7029;SDS011;3556;53.500;10.176;2023-12-20T07:54:15;14.20;;;2.77;;
7029;SDS011;3556;53.500;10.176;2023-12-20T07:56:41;18.40;;;3.00;;
7029;SDS011;3556;53.500;10.176;2023-12-20T07:59:06;16.37;;;3.10;;
7029;SDS011;3556;53.500;10.176;2023-12-20T08:01:32;9.20;;;2.43;;
7029;SDS011;3556;53.500;10.176;2023-12-20T08:03:57;9.40;;;2.07;;
7029;SDS011;3556;53.500;10.176;2023-12-20T08:06:23;16.33;;;2.93;;
7029;SDS011;3556;53.500;10.176;2023-12-20T08:08:49;29.57;;;3.80;;
7029;SDS011;3556;53.500;10.176;2023-12-20T08:11:14;15.90;;;2.60;;
7029;SDS011;3556;53.500;10.176;2023-12-20T08:13:40;15.10;;;2.77;;
7029;SDS011;3556;53.500;10.176;2023-12-20T08:16:05;12.97;;;2.90;;
7029;SDS011;3556;53.500;10.176;2023-12-20T08:18:31;22.00;;;3.50;;
7029;SDS011;3556;53.500;10.176;2023-12-20T08:20:57;21.03;;;3.60;;
7029;SDS011;3556;53.500;10.176;2023-12-20T08:23:22;13.20;;;2.97;;
7029;SDS011;3556;53.500;10.176;2023-12-20T08:25:48;16.33;;;3.60;;
7029;SDS011;3556;53.500;10.176;2023-12-20T08:28:14;11.17;;;2.90;;
7029;SDS011;3556;53.500;10.176;2023-12-20T08:30:40;20.53;;;3.37;;
7029;SDS011;3556;53.500;10.176;2023-12-20T08:33:06;11.53;;;3.50;;
7029;SDS011;3556;53.500;10.176;2023-12-20T08:35:36;15.20;;;3.17;;
7029;SDS011;3556;53.500;10.176;2023-12-20T08:38:02;23.57;;;4.27;;
7029;SDS011;3556;53.500;10.176;2023-12-20T08:40:29;16.30;;;3.20;;
7029;SDS011;3556;53.500;10.176;2023-12-20T08:42:54;25.13;;;3.57;;
7029;SDS011;3556;53.500;10.176;2023-12-20T08:45:20;16.50;;;3.07;;
7029;SDS011;3556;53.500;10.176;2023-12-20T08:47:46;17.77;;;3.63;;
7029;SDS011;3556;53.500;10.176;2023-12-20T08:50:11;18.63;;;3.87;;
7029;SDS011;3556;53.500;10.176;2023-12-20T08:52:37;20.17;;;3.33;;
7029;SDS011;3556;53.500;10.176;2023-12-20T08:55:03;22.50;;;3.17;;
7029;SDS011;3556;53.500;10.176;2023-12-20T08:57:29;14.50;;;2.57;;
7029;SDS011;3556;53.500;10.176;2023-12-20T08:59:56;15.33;;;2.60;;
7029;SDS011;3556;53.500;10.176;2023-12-20T09:02:22;9.90;;;2.93;;
7029;SDS011;3556;53.500;10.176;2023-12-20T09:04:48;16.80;;;2.50;;
7029;SDS011;3556;53.500;10.176;2023-12-20T09:07:23;10.70;;;3.80;;
7029;SDS011;3556;53.500;10.176;2023-12-20T09:09:53;18.37;;;2.70;;
7029;SDS011;3556;53.500;10.176;2023-12-20T09:12:19;14.03;;;2.43;;
7029;SDS011;3556;53.500;10.176;2023-12-20T09:14:45;9.73;;;1.80;;
7029;SDS011;3556;53.500;10.176;2023-12-20T09:17:12;9.30;;;1.80;;
7029;SDS011;3556;53.500;10.176;2023-12-20T09:19:38;8.30;;;1.53;;
7029;SDS011;3556;53.500;10.176;2023-12-20T09:22:04;14.43;;;2.20;;
7029;SDS011;3556;53.500;10.176;2023-12-20T09:24:30;8.50;;;2.10;;
7029;SDS011;3556;53.500;10.176;2023-12-20T09:26:56;7.13;;;1.80;;
7029;SDS011;3556;53.500;10.176;2023-12-20T09:29:22;10.53;;;1.80;;
7029;SDS011;3556;53.500;10.176;2023-12-20T09:31:49;6.83;;;1.93;;
7029;SDS011;3556;53.500;10.176;2023-12-20T09:34:15;8.90;;;1.63;;
7029;SDS011;3556;53.500;10.176;2023-12-20T09:36:42;2.17;;;1.00;;
7029;SDS011;3556;53.500;10.176;2023-12-20T09:39:12;5.67;;;1.37;;
7029;SDS011;3556;53.500;10.176;2023-12-20T09:41:40;3.27;;;0.80;;
7029;SDS011;3556;53.500;10.176;2023-12-20T09:44:08;3.00;;;0.97;;
7029;SDS011;3556;53.500;10.176;2023-12-20T09:46:39;4.40;;;0.90;;
7029;SDS011;3556;53.500;10.176;2023-12-20T09:49:09;7.60;;;1.10;;
7029;SDS011;3556;53.500;10.176;2023-12-20T09:51:35;3.67;;;1.00;;
7029;SDS011;3556;53.500;10.176;2023-12-20T09:54:03;6.60;;;1.10;;
7029;SDS011;3556;53.500;10.176;2023-12-20T09:56:29;5.83;;;0.90;;
7029;SDS011;3556;53.500;10.176;2023-12-20T09:58:55;2.40;;;0.70;;
7029;SDS011;3556;53.500;10.176;2023-12-20T10:01:21;2.33;;;0.70;;
7029;SDS011;3556;53.500;10.176;2023-12-20T10:03:47;1.77;;;0.73;;
7029;SDS011;3556;53.500;10.176;2023-12-20T10:06:15;2.80;;;0.90;;
7029;SDS011;3556;53.500;10.176;2023-12-20T10:08:41;3.63;;;1.50;;
7029;SDS011;3556;53.500;10.176;2023-12-20T10:11:07;3.40;;;0.77;;
7029;SDS011;3556;53.500;10.176;2023-12-20T10:13:32;2.23;;;0.60;;
7029;SDS011;3556;53.500;10.176;2023-12-20T10:15:59;1.40;;;0.70;;
7029;SDS011;3556;53.500;10.176;2023-12-20T10:18:25;2.30;;;0.80;;
7029;SDS011;3556;53.500;10.176;2023-12-20T10:20:53;3.63;;;0.83;;
7029;SDS011;3556;53.500;10.176;2023-12-20T10:23:19;1.57;;;0.60;;
7029;SDS011;3556;53.500;10.176;2023-12-20T10:25:53;2.33;;;0.70;;
7029;SDS011;3556;53.500;10.176;2023-12-20T10:28:22;7.27;;;0.83;;
7029;SDS011;3556;53.500;10.176;2023-12-20T10:30:50;2.33;;;0.70;;
7029;SDS011;3556;53.500;10.176;2023-12-20T10:33:25;1.90;;;0.87;;
7029;SDS011;3556;53.500;10.176;2023-12-20T10:35:52;1.60;;;0.67;;
7029;SDS011;3556;53.500;10.176;2023-12-20T10:38:18;2.23;;;0.57;;
7029;SDS011;3556;53.500;10.176;2023-12-20T10:40:45;2.33;;;0.60;;
7029;SDS011;3556;53.500;10.176;2023-12-20T10:43:11;4.53;;;0.60;;
7029;SDS011;3556;53.500;10.176;2023-12-20T10:45:37;7.80;;;0.80;;
7029;SDS011;3556;53.500;10.176;2023-12-20T10:48:03;2.10;;;0.90;;
7029;SDS011;3556;53.500;10.176;2023-12-20T10:50:29;5.10;;;0.97;;
7029;SDS011;3556;53.500;10.176;2023-12-20T10:52:56;4.20;;;1.10;;
7029;SDS011;3556;53.500;10.176;2023-12-20T10:55:23;6.13;;;0.97;;
7029;SDS011;3556;53.500;10.176;2023-12-20T10:57:49;9.93;;;0.90;;
7029;SDS011;3556;53.500;10.176;2023-12-20T11:00:17;4.33;;;1.13;;
7029;SDS011;3556;53.500;10.176;2023-12-20T11:02:43;3.53;;;0.90;;
7029;SDS011;3556;53.500;10.176;2023-12-20T11:08:13;3.97;;;0.60;;
7029;SDS011;3556;53.500;10.176;2023-12-20T11:13:17;9.27;;;1.00;;
7029;SDS011;3556;53.500;10.176;2023-12-20T11:15:51;4.03;;;1.00;;
7029;SDS011;3556;53.500;10.176;2023-12-20T11:18:17;5.23;;;1.17;;
7029;SDS011;3556;53.500;10.176;2023-12-20T11:20:42;5.77;;;0.80;;
7029;SDS011;3556;53.500;10.176;2023-12-20T11:23:08;6.63;;;1.20;;
7029;SDS011;3556;53.500;10.176;2023-12-20T11:25:56;5.90;;;1.10;;
7029;SDS011;3556;53.500;10.176;2023-12-20T11:28:22;10.30;;;1.10;;
7029;SDS011;3556;53.500;10.176;2023-12-20T11:30:50;5.43;;;1.13;;
7029;SDS011;3556;53.500;10.176;2023-12-20T11:33:23;1.13;;;0.70;;
7029;SDS011;3556;53.500;10.176;2023-12-20T11:35:50;6.13;;;1.03;;
7029;SDS011;3556;53.500;10.176;2023-12-20T11:38:16;3.47;;;0.80;;
7029;SDS011;3556;53.500;10.176;2023-12-20T11:40:47;6.10;;;1.00;;
7029;SDS011;3556;53.500;10.176;2023-12-20T11:43:30;12.57;;;1.30;;
7029;SDS011;3556;53.500;10.176;2023-12-20T11:45:56;7.53;;;1.30;;
7029;SDS011;3556;53.500;10.176;2023-12-20T11:48:31;5.93;;;1.07;;
7029;SDS011;3556;53.500;10.176;2023-12-20T11:50:58;8.87;;;1.20;;
7029;SDS011;3556;53.500;10.176;2023-12-20T11:53:24;6.33;;;1.20;;
7029;SDS011;3556;53.500;10.176;2023-12-20T11:55:50;12.03;;;1.37;;
7029;SDS011;3556;53.500;10.176;2023-12-20T11:58:15;15.77;;;1.57;;
7029;SDS011;3556;53.500;10.176;2023-12-20T12:00:42;8.43;;;1.23;;
7029;SDS011;3556;53.500;10.176;2023-12-20T12:03:08;12.43;;;1.60;;
7029;SDS011;3556;53.500;10.176;2023-12-20T12:05:34;11.00;;;1.53;;
7029;SDS011;3556;53.500;10.176;2023-12-20T12:08:00;19.60;;;1.90;;
7029;SDS011;3556;53.500;10.176;2023-12-20T12:10:26;21.17;;;2.27;;
7029;SDS011;3556;53.500;10.176;2023-12-20T12:12:52;2.50;;;1.10;;
7029;SDS011;3556;53.500;10.176;2023-12-20T12:15:18;12.50;;;2.00;;
7029;SDS011;3556;53.500;10.176;2023-12-20T12:17:44;7.37;;;1.67;;
7029;SDS011;3556;53.500;10.176;2023-12-20T12:20:17;10.57;;;2.30;;
7029;SDS011;3556;53.500;10.176;2023-12-20T12:22:45;11.00;;;2.17;;
7029;SDS011;3556;53.500;10.176;2023-12-20T12:25:15;5.80;;;1.70;;
7029;SDS011;3556;53.500;10.176;2023-12-20T12:27:41;19.73;;;1.90;;
7029;SDS011;3556;53.500;10.176;2023-12-20T12:30:08;7.23;;;1.63;;
7029;SDS011;3556;53.500;10.176;2023-12-20T12:32:35;10.37;;;1.93;;
7029;SDS011;3556;53.500;10.176;2023-12-20T12:35:02;11.93;;;1.97;;
7029;SDS011;3556;53.500;10.176;2023-12-20T12:37:34;9.57;;;1.67;;
7029;SDS011;3556;53.500;10.176;2023-12-20T12:40:00;11.70;;;1.73;;
7029;SDS011;3556;53.500;10.176;2023-12-20T12:42:26;8.93;;;1.90;;
7029;SDS011;3556;53.500;10.176;2023-12-20T12:44:54;8.80;;;1.80;;
7029;SDS011;3556;53.500;10.176;2023-12-20T12:47:20;15.30;;;2.17;;
7029;SDS011;3556;53.500;10.176;2023-12-20T12:49:46;15.83;;;1.87;;
7029;SDS011;3556;53.500;10.176;2023-12-20T12:52:12;13.70;;;2.80;;
7029;SDS011;3556;53.500;10.176;2023-12-20T12:54:37;10.47;;;1.87;;
7029;SDS011;3556;53.500;10.176;2023-12-20T12:57:03;19.30;;;2.03;;
7029;SDS011;3556;53.500;10.176;2023-12-20T12:59:29;25.73;;;2.33;;
7029;SDS011;3556;53.500;10.176;2023-12-20T13:01:54;19.27;;;1.50;;
7029;SDS011;3556;53.500;10.176;2023-12-20T13:04:20;21.57;;;2.57;;
7029;SDS011;3556;53.500;10.176;2023-12-20T13:06:45;12.43;;;1.93;;
7029;SDS011;3556;53.500;10.176;2023-12-20T13:09:12;9.30;;;1.87;;
7029;SDS011;3556;53.500;10.176;2023-12-20T13:11:37;7.37;;;1.63;;
7029;SDS011;3556;53.500;10.176;2023-12-20T13:14:03;16.27;;;2.40;;
7029;SDS011;3556;53.500;10.176;2023-12-20T13:16:29;6.30;;;1.77;;
7029;SDS011;3556;53.500;10.176;2023-12-20T13:18:54;8.00;;;1.53;;
7029;SDS011;3556;53.500;10.176;2023-12-20T13:21:21;16.30;;;2.00;;
7029;SDS011;3556;53.500;10.176;2023-12-20T13:23:46;9.70;;;1.90;;
7029;SDS011;3556;53.500;10.176;2023-12-20T13:26:12;23.00;;;6.70;;
7029;SDS011;3556;53.500;10.176;2023-12-20T13:28:37;37.93;;;14.50;;
7029;SDS011;3556;53.500;10.176;2023-12-20T13:31:03;20.97;;;7.67;;
7029;SDS011;3556;53.500;10.176;2023-12-20T13:33:29;15.50;;;4.57;;
7029;SDS011;3556;53.500;10.176;2023-12-20T13:35:54;12.13;;;2.77;;
7029;SDS011;3556;53.500;10.176;2023-12-20T13:38:21;9.23;;;2.50;;
7029;SDS011;3556;53.500;10.176;2023-12-20T13:40:47;9.23;;;2.40;;
7029;SDS011;3556;53.500;10.176;2023-12-20T13:43:12;28.00;;;3.40;;
7029;SDS011;3556;53.500;10.176;2023-12-20T13:45:39;12.83;;;3.40;;
7029;SDS011;3556;53.500;10.176;2023-12-20T13:48:04;18.27;;;4.93;;
7029;SDS011;3556;53.500;10.176;2023-12-20T13:50:30;5.90;;;2.40;;
7029;SDS011;3556;53.500;10.176;2023-12-20T13:52:56;19.97;;;2.13;;
7029;SDS011;3556;53.500;10.176;2023-12-20T13:55:21;16.30;;;2.63;;
7029;SDS011;3556;53.500;10.176;2023-12-20T13:57:50;11.27;;;2.50;;
7029;SDS011;3556;53.500;10.176;2023-12-20T14:00:16;18.30;;;3.37;;
7029;SDS011;3556;53.500;10.176;2023-12-20T14:02:42;13.93;;;2.13;;
7029;SDS011;3556;53.500;10.176;2023-12-20T14:05:08;9.67;;;2.53;;
7029;SDS011;3556;53.500;10.176;2023-12-20T14:07:34;17.50;;;2.70;;
7029;SDS011;3556;53.500;10.176;2023-12-20T14:10:00;17.63;;;2.50;;
7029;SDS011;3556;53.500;10.176;2023-12-20T14:12:25;21.10;;;2.90;;
7029;SDS011;3556;53.500;10.176;2023-12-20T14:14:51;23.70;;;3.63;;
7029;SDS011;3556;53.500;10.176;2023-12-20T14:17:17;18.57;;;3.00;;
7029;SDS011;3556;53.500;10.176;2023-12-20T14:19:43;15.63;;;2.70;;
7029;SDS011;3556;53.500;10.176;2023-12-20T14:22:08;21.30;;;3.43;;
7029;SDS011;3556;53.500;10.176;2023-12-20T14:24:35;23.07;;;3.50;;
7029;SDS011;3556;53.500;10.176;2023-12-20T14:27:01;19.53;;;3.87;;
7029;SDS011;3556;53.500;10.176;2023-12-20T14:29:26;32.70;;;3.33;;
7029;SDS011;3556;53.500;10.176;2023-12-20T14:31:52;23.03;;;3.50;;
7029;SDS011;3556;53.500;10.176;2023-12-20T14:34:18;25.63;;;3.50;;
7029;SDS011;3556;53.500;10.176;2023-12-20T14:36:43;23.93;;;2.90;;
7029;SDS011;3556;53.500;10.176;2023-12-20T14:39:09;18.30;;;3.40;;
7029;SDS011;3556;53.500;10.176;2023-12-20T14:41:38;77.77;;;22.40;;
7029;SDS011;3556;53.500;10.176;2023-12-20T14:44:05;70.77;;;17.70;;
7029;SDS011;3556;53.500;10.176;2023-12-20T14:46:30;45.03;;;14.30;;
7029;SDS011;3556;53.500;10.176;2023-12-20T14:48:56;19.13;;;5.03;;
7029;SDS011;3556;53.500;10.176;2023-12-20T14:51:22;20.70;;;5.53;;